createdAt,value
2019-01-30T00:00:00.498Z,0.00
2019-01-30T00:01:00.509Z,0.00
2019-01-30T00:02:00.518Z,0.00
2019-01-30T00:03:00.527Z,0.00
2019-01-30T00:04:00.535Z,0.00
2019-01-30T00:05:00.547Z,0.00
2019-01-30T00:06:00.555Z,0.00
2019-01-30T00:07:00.564Z,0.00
2019-01-30T00:08:00.576Z,0.00
2019-01-30T00:09:00.583Z,0.00
2019-01-30T00:10:00.592Z,0.00
2019-01-30T00:11:00.602Z,0.00
2019-01-30T00:12:00.613Z,0.00
2019-01-30T00:13:00.621Z,0.00
2019-01-30T00:14:00.632Z,0.00
2019-01-30T00:15:00.635Z,0.00
2019-01-30T00:16:00.646Z,0.00
2019-01-30T00:17:00.656Z,0.00
2019-01-30T00:18:00.663Z,0.00
2019-01-30T00:19:00.674Z,0.00
2019-01-30T00:20:00.685Z,0.00
2019-01-30T00:21:00.692Z,0.00
2019-01-30T00:22:00.699Z,0.00
2019-01-30T00:23:00.712Z,0.00
2019-01-30T00:24:00.721Z,0.00
2019-01-30T00:25:00.730Z,0.00
2019-01-30T00:26:00.736Z,0.00
2019-01-30T00:27:00.746Z,0.00
2019-01-30T00:28:00.755Z,0.00
2019-01-30T00:29:00.766Z,0.00
2019-01-30T00:30:04.142Z,0.00
2019-01-30T00:31:00.783Z,0.00
2019-01-30T00:32:00.794Z,0.00
2019-01-30T00:33:00.802Z,0.00
2019-01-30T00:34:00.809Z,0.00
2019-01-30T00:35:00.821Z,0.00
2019-01-30T00:36:00.827Z,0.00
2019-01-30T00:37:00.840Z,0.00
2019-01-30T00:38:00.846Z,0.00
2019-01-30T00:39:00.856Z,0.00
2019-01-30T00:40:00.864Z,0.00
2019-01-30T00:41:00.882Z,0.00
2019-01-30T00:42:00.962Z,0.00
2019-01-30T00:43:00.969Z,0.00
2019-01-30T00:44:00.957Z,0.00
2019-01-30T00:45:00.965Z,0.00
2019-01-30T00:46:00.957Z,0.00
2019-01-30T00:47:00.965Z,0.00
2019-01-30T00:48:00.962Z,0.00
2019-01-30T00:49:01.030Z,0.00
2019-01-30T00:50:01.026Z,0.00
2019-01-30T00:51:01.026Z,0.00
2019-01-30T00:52:01.016Z,0.00
2019-01-30T00:53:01.023Z,0.00
2019-01-30T00:54:01.010Z,0.00
2019-01-30T00:55:01.036Z,0.00
2019-01-30T00:56:01.010Z,0.00
2019-01-30T00:57:01.030Z,0.00
2019-01-30T00:58:01.025Z,0.00
2019-01-30T00:59:01.038Z,0.00
2019-01-30T01:00:01.046Z,0.00
2019-01-30T01:01:01.054Z,0.00
2019-01-30T01:02:01.061Z,0.00
2019-01-30T01:03:01.070Z,0.00
2019-01-30T01:04:01.079Z,0.00
2019-01-30T01:05:01.087Z,0.00
2019-01-30T01:06:01.097Z,0.00
2019-01-30T01:07:01.106Z,0.00
2019-01-30T01:08:01.115Z,0.00
2019-01-30T01:09:01.124Z,0.00
2019-01-30T01:10:01.133Z,0.00
2019-01-30T01:11:01.142Z,0.00
2019-01-30T01:12:01.150Z,0.00
2019-01-30T01:13:01.164Z,0.00
2019-01-30T01:14:01.241Z,0.00
2019-01-30T01:15:01.277Z,0.00
2019-01-30T01:16:01.185Z,0.00
2019-01-30T01:17:01.195Z,0.00
2019-01-30T01:18:01.205Z,0.00
2019-01-30T01:19:01.213Z,0.00
2019-01-30T01:20:01.222Z,0.00
2019-01-30T01:21:01.231Z,0.00
2019-01-30T01:22:01.238Z,0.00
2019-01-30T01:23:01.248Z,0.00
2019-01-30T01:24:01.259Z,0.00
2019-01-30T01:25:01.268Z,0.00
2019-01-30T01:26:01.274Z,0.00
2019-01-30T01:27:01.283Z,0.00
2019-01-30T01:28:01.292Z,0.00
2019-01-30T01:29:01.302Z,0.00
2019-01-30T01:30:01.309Z,0.00
2019-01-30T01:31:01.319Z,0.00
2019-01-30T01:32:01.330Z,0.00
2019-01-30T01:33:01.337Z,0.00
2019-01-30T01:34:01.343Z,0.00
2019-01-30T01:35:01.355Z,0.00
2019-01-30T01:36:01.362Z,0.00
2019-01-30T01:37:01.371Z,0.00
2019-01-30T01:38:01.378Z,0.00
2019-01-30T01:39:01.390Z,0.00
2019-01-30T01:40:01.400Z,0.00
2019-01-30T01:41:01.408Z,0.00
2019-01-30T01:42:01.417Z,0.00
2019-01-30T01:43:01.425Z,0.00
2019-01-30T01:44:01.432Z,0.00
2019-01-30T01:45:01.443Z,0.00
2019-01-30T01:46:01.451Z,0.00
2019-01-30T01:47:01.461Z,0.00
2019-01-30T01:48:01.469Z,0.00
2019-01-30T01:49:01.479Z,0.00
2019-01-30T01:50:01.485Z,0.00
2019-01-30T01:51:01.493Z,0.00
2019-01-30T01:52:01.503Z,0.00
2019-01-30T01:53:01.509Z,0.00
2019-01-30T01:54:01.518Z,0.00
2019-01-30T01:55:01.531Z,0.00
2019-01-30T01:56:01.536Z,0.00
2019-01-30T01:57:01.546Z,0.00
2019-01-30T01:58:01.552Z,0.00
2019-01-30T01:59:01.563Z,0.00
2019-01-30T02:00:01.577Z,0.00
2019-01-30T02:01:01.581Z,0.00
2019-01-30T02:02:01.590Z,0.00
2019-01-30T02:03:01.599Z,0.00
2019-01-30T02:04:01.605Z,0.00
2019-01-30T02:05:01.619Z,0.00
2019-01-30T02:06:01.698Z,0.00
2019-01-30T02:07:01.635Z,0.00
2019-01-30T02:08:01.640Z,0.00
2019-01-30T02:09:01.651Z,0.00
2019-01-30T02:10:01.660Z,0.00
2019-01-30T02:11:01.667Z,0.00
2019-01-30T02:12:01.678Z,0.00
2019-01-30T02:13:01.685Z,0.00
2019-01-30T02:14:01.697Z,0.00
2019-01-30T02:15:01.704Z,0.00
2019-01-30T02:16:01.712Z,0.00
2019-01-30T02:17:01.721Z,0.00
2019-01-30T02:18:01.734Z,0.00
2019-01-30T02:19:01.738Z,0.00
2019-01-30T02:20:01.746Z,0.00
2019-01-30T02:21:01.758Z,0.00
2019-01-30T02:22:01.763Z,0.00
2019-01-30T02:23:01.773Z,0.00
2019-01-30T02:24:01.780Z,0.00
2019-01-30T02:25:01.790Z,0.00
2019-01-30T02:26:01.796Z,0.00
2019-01-30T02:27:01.806Z,0.00
2019-01-30T02:28:01.814Z,0.00
2019-01-30T02:29:01.888Z,0.00
2019-01-30T02:30:01.830Z,0.00
2019-01-30T02:31:01.842Z,0.00
2019-01-30T02:32:01.848Z,0.00
2019-01-30T02:33:01.862Z,0.00
2019-01-30T02:34:01.865Z,0.00
2019-01-30T02:35:01.872Z,0.00
2019-01-30T02:36:01.884Z,0.00
2019-01-30T02:37:01.894Z,0.00
2019-01-30T02:38:01.905Z,0.00
2019-01-30T02:39:01.908Z,0.00
2019-01-30T02:40:01.920Z,0.00
2019-01-30T02:41:01.927Z,0.00
2019-01-30T02:42:01.937Z,0.00
2019-01-30T02:43:01.946Z,0.00
2019-01-30T02:44:02.063Z,0.00
2019-01-30T02:45:01.964Z,0.00
2019-01-30T02:46:01.969Z,0.00
2019-01-30T02:47:01.976Z,0.00
2019-01-30T02:48:02.001Z,0.00
2019-01-30T02:49:01.999Z,0.00
2019-01-30T02:50:02.004Z,0.00
2019-01-30T02:51:02.158Z,0.00
2019-01-30T02:52:02.022Z,0.00
2019-01-30T02:53:02.030Z,0.00
2019-01-30T02:54:02.039Z,0.00
2019-01-30T02:55:02.048Z,0.00
2019-01-30T02:56:02.053Z,0.00
2019-01-30T02:57:02.063Z,0.00
2019-01-30T02:58:02.072Z,0.00
2019-01-30T02:59:02.083Z,0.00
2019-01-30T03:00:02.090Z,0.00
2019-01-30T03:01:02.100Z,0.00
2019-01-30T03:02:02.107Z,0.00
2019-01-30T03:03:02.115Z,0.00
2019-01-30T03:04:02.129Z,0.00
2019-01-30T03:05:02.132Z,0.00
2019-01-30T03:06:02.138Z,0.00
2019-01-30T03:07:02.150Z,0.00
2019-01-30T03:08:02.161Z,0.00
2019-01-30T03:09:02.166Z,0.00
2019-01-30T03:10:02.176Z,0.00
2019-01-30T03:11:02.211Z,0.00
2019-01-30T03:12:02.193Z,0.00
2019-01-30T03:13:02.202Z,0.00
2019-01-30T03:14:02.209Z,0.00
2019-01-30T03:15:02.217Z,0.00
2019-01-30T03:16:02.226Z,0.00
2019-01-30T03:17:02.241Z,0.00
2019-01-30T03:18:02.522Z,0.00
2019-01-30T03:19:02.252Z,0.00
2019-01-30T03:20:02.259Z,0.00
2019-01-30T03:21:02.268Z,0.00
2019-01-30T03:22:02.275Z,0.00
2019-01-30T03:23:02.285Z,0.00
2019-01-30T03:24:02.301Z,0.00
2019-01-30T03:25:02.303Z,0.00
2019-01-30T03:26:02.313Z,0.00
2019-01-30T03:27:02.320Z,0.00
2019-01-30T03:28:02.327Z,0.00
2019-01-30T03:29:02.337Z,0.00
2019-01-30T03:30:02.345Z,0.00
2019-01-30T03:31:17.069Z,0.00
2019-01-30T03:32:02.364Z,0.00
2019-01-30T03:33:02.375Z,0.00
2019-01-30T03:34:02.380Z,0.00
2019-01-30T03:35:02.386Z,0.00
2019-01-30T03:36:02.395Z,0.00
2019-01-30T03:37:02.405Z,0.00
2019-01-30T03:38:02.410Z,0.00
2019-01-30T03:39:02.423Z,0.00
2019-01-30T03:40:02.432Z,0.00
2019-01-30T03:41:02.438Z,0.00
2019-01-30T03:42:02.448Z,0.00
2019-01-30T03:43:02.457Z,0.00
2019-01-30T03:44:02.464Z,0.00
2019-01-30T03:45:02.471Z,0.00
2019-01-30T03:46:02.479Z,0.00
2019-01-30T03:47:02.486Z,0.00
2019-01-30T03:48:02.496Z,0.00
2019-01-30T03:49:02.511Z,0.00
2019-01-30T03:50:02.514Z,0.00
2019-01-30T03:51:02.522Z,0.00
2019-01-30T03:52:02.531Z,0.00
2019-01-30T03:53:02.539Z,0.00
2019-01-30T03:54:02.546Z,0.00
2019-01-30T03:55:02.556Z,0.00
2019-01-30T03:56:02.565Z,0.00
2019-01-30T03:57:02.573Z,0.00
2019-01-30T03:58:02.581Z,0.00
2019-01-30T03:59:02.590Z,0.00
2019-01-30T04:00:02.598Z,0.00
2019-01-30T04:01:02.606Z,0.00
2019-01-30T04:02:02.617Z,0.00
2019-01-30T04:03:02.648Z,0.00
2019-01-30T04:04:02.679Z,0.00
2019-01-30T04:05:02.712Z,0.00
2019-01-30T04:06:02.733Z,0.00
2019-01-30T04:07:02.707Z,0.00
2019-01-30T04:08:02.712Z,0.00
2019-01-30T04:09:02.706Z,0.00
2019-01-30T04:10:02.749Z,0.00
2019-01-30T04:11:02.761Z,0.00
2019-01-30T04:12:02.776Z,0.00
2019-01-30T04:13:02.774Z,0.00
2019-01-30T04:14:02.756Z,0.00
2019-01-30T04:15:02.762Z,0.00
2019-01-30T04:16:02.768Z,0.00
2019-01-30T04:17:02.760Z,0.00
2019-01-30T04:18:02.751Z,0.00
2019-01-30T04:19:02.765Z,0.00
2019-01-30T04:20:02.778Z,0.00
2019-01-30T04:21:02.774Z,0.00
2019-01-30T04:22:02.783Z,0.00
2019-01-30T04:23:02.790Z,0.00
2019-01-30T04:24:02.806Z,0.00
2019-01-30T04:25:02.807Z,0.00
2019-01-30T04:26:02.814Z,0.00
2019-01-30T04:27:02.885Z,0.00
2019-01-30T04:28:02.830Z,0.00
2019-01-30T04:29:02.840Z,0.00
2019-01-30T04:30:02.852Z,0.00
2019-01-30T04:31:02.860Z,0.00
2019-01-30T04:32:02.870Z,0.00
2019-01-30T04:33:02.873Z,0.00
2019-01-30T04:34:02.884Z,0.00
2019-01-30T04:35:02.890Z,0.00
2019-01-30T04:36:02.901Z,0.00
2019-01-30T04:37:02.906Z,0.00
2019-01-30T04:38:02.926Z,0.00
2019-01-30T04:39:02.923Z,0.00
2019-01-30T04:40:02.931Z,0.00
2019-01-30T04:41:02.947Z,0.00
2019-01-30T04:42:02.953Z,0.00
2019-01-30T04:43:02.956Z,0.00
2019-01-30T04:44:02.965Z,0.00
2019-01-30T04:45:02.977Z,0.00
2019-01-30T04:46:02.979Z,0.00
2019-01-30T04:47:02.992Z,0.00
2019-01-30T04:48:03.008Z,0.00
2019-01-30T04:49:03.006Z,0.00
2019-01-30T04:50:03.017Z,0.00
2019-01-30T04:51:03.028Z,0.00
2019-01-30T04:52:03.030Z,0.00
2019-01-30T04:53:03.040Z,0.00
2019-01-30T04:54:03.046Z,0.00
2019-01-30T04:55:03.056Z,0.00
2019-01-30T04:56:03.065Z,0.00
2019-01-30T04:57:03.073Z,0.00
2019-01-30T04:58:03.079Z,0.00
2019-01-30T04:59:03.089Z,0.00
2019-01-30T05:00:03.098Z,0.00
2019-01-30T05:01:03.104Z,0.00
2019-01-30T05:02:03.114Z,0.00
2019-01-30T05:03:03.119Z,0.00
2019-01-30T05:04:03.130Z,0.00
2019-01-30T05:05:03.138Z,0.00
2019-01-30T05:06:03.146Z,0.00
2019-01-30T05:07:03.153Z,0.00
2019-01-30T05:08:03.183Z,0.00
2019-01-30T05:09:03.172Z,0.00
2019-01-30T05:10:03.179Z,0.00
2019-01-30T05:11:03.193Z,0.00
2019-01-30T05:12:03.198Z,0.00
2019-01-30T05:13:03.203Z,0.00
2019-01-30T05:14:03.213Z,0.00
2019-01-30T05:15:03.224Z,0.00
2019-01-30T05:16:03.229Z,0.00
2019-01-30T05:17:03.235Z,0.00
2019-01-30T05:18:03.244Z,0.00
2019-01-30T05:19:03.252Z,0.00
2019-01-30T05:20:03.264Z,0.00
2019-01-30T05:21:03.273Z,0.00
2019-01-30T05:22:03.301Z,0.00
2019-01-30T05:23:03.286Z,0.00
2019-01-30T05:24:03.298Z,0.00
2019-01-30T05:25:03.301Z,0.00
2019-01-30T05:26:03.310Z,0.00
2019-01-30T05:27:03.318Z,0.00
2019-01-30T05:28:03.325Z,0.00
2019-01-30T05:29:03.334Z,0.00
2019-01-30T05:30:03.342Z,0.00
2019-01-30T05:31:03.350Z,0.00
2019-01-30T05:32:03.359Z,0.00
2019-01-30T05:33:03.368Z,0.00
2019-01-30T05:34:03.374Z,0.00
2019-01-30T05:35:03.384Z,0.00
2019-01-30T05:36:03.393Z,0.00
2019-01-30T05:37:03.405Z,0.00
2019-01-30T05:38:03.414Z,0.00
2019-01-30T05:39:03.418Z,0.00
2019-01-30T05:40:03.424Z,0.00
2019-01-30T05:41:03.434Z,0.00
2019-01-30T05:42:03.440Z,0.00
2019-01-30T05:43:03.448Z,0.00
2019-01-30T05:44:03.454Z,0.00
2019-01-30T05:45:03.467Z,0.00
2019-01-30T05:46:03.473Z,0.00
2019-01-30T05:47:03.482Z,0.00
2019-01-30T05:48:03.492Z,0.00
2019-01-30T05:49:03.500Z,0.00
2019-01-30T05:50:03.506Z,0.00
2019-01-30T05:51:03.514Z,0.00
2019-01-30T05:52:03.521Z,0.00
2019-01-30T05:53:03.530Z,0.00
2019-01-30T05:54:03.538Z,0.00
2019-01-30T05:55:03.549Z,0.00
2019-01-30T05:56:03.560Z,0.00
2019-01-30T05:57:03.565Z,0.00
2019-01-30T05:58:03.571Z,0.00
2019-01-30T05:59:03.584Z,0.00
2019-01-30T06:00:03.586Z,0.00
2019-01-30T06:01:03.597Z,0.00
2019-01-30T06:02:11.780Z,0.00
2019-01-30T06:03:03.613Z,0.00
2019-01-30T06:04:03.619Z,0.00
2019-01-30T06:05:03.628Z,0.00
2019-01-30T06:06:03.636Z,0.00
2019-01-30T06:07:03.645Z,0.00
2019-01-30T06:08:03.659Z,0.00
2019-01-30T06:09:03.661Z,0.00
2019-01-30T06:10:03.670Z,0.00
2019-01-30T06:11:03.689Z,0.00
2019-01-30T06:12:03.687Z,0.00
2019-01-30T06:13:03.693Z,0.00
2019-01-30T06:14:03.699Z,0.00
2019-01-30T06:15:03.709Z,0.00
2019-01-30T06:16:03.722Z,0.00
2019-01-30T06:17:03.728Z,0.00
2019-01-30T06:18:03.733Z,0.00
2019-01-30T06:19:03.743Z,0.00
2019-01-30T06:20:03.751Z,0.00
2019-01-30T06:21:03.760Z,0.00
2019-01-30T06:22:03.768Z,0.00
2019-01-30T06:23:03.777Z,0.00
2019-01-30T06:24:03.785Z,0.00
2019-01-30T06:25:03.793Z,0.00
2019-01-30T06:26:03.801Z,0.00
2019-01-30T06:27:03.808Z,0.00
2019-01-30T06:28:03.817Z,0.00
2019-01-30T06:29:03.824Z,0.00
2019-01-30T06:30:03.832Z,0.00
2019-01-30T06:31:03.840Z,0.00
2019-01-30T06:32:03.849Z,0.00
2019-01-30T06:33:03.862Z,0.00
2019-01-30T06:34:03.988Z,0.00
2019-01-30T06:35:03.877Z,0.00
2019-01-30T06:36:03.879Z,0.00
2019-01-30T06:37:03.892Z,0.00
2019-01-30T06:38:03.896Z,0.00
2019-01-30T06:39:03.908Z,5.63
2019-01-30T06:40:03.915Z,5.63
2019-01-30T06:41:03.922Z,5.63
2019-01-30T06:42:03.929Z,5.63
2019-01-30T06:43:03.940Z,5.63
2019-01-30T06:44:03.947Z,5.63
2019-01-30T06:45:03.954Z,5.63
2019-01-30T06:46:03.962Z,5.63
2019-01-30T06:47:03.971Z,5.63
2019-01-30T06:48:03.982Z,5.63
2019-01-30T06:49:03.988Z,11.25
2019-01-30T06:50:03.996Z,11.25
2019-01-30T06:51:04.003Z,11.25
2019-01-30T06:52:04.012Z,11.25
2019-01-30T06:53:04.019Z,11.25
2019-01-30T06:54:04.028Z,11.25
2019-01-30T06:55:04.036Z,16.88
2019-01-30T06:56:04.046Z,16.88
2019-01-30T06:57:04.053Z,16.88
2019-01-30T06:58:04.059Z,16.88
2019-01-30T06:59:04.069Z,22.50
2019-01-30T07:00:04.079Z,22.50
2019-01-30T07:01:04.084Z,22.50
2019-01-30T07:02:04.094Z,22.50
2019-01-30T07:03:04.102Z,28.13
2019-01-30T07:04:04.111Z,28.13
2019-01-30T07:05:04.119Z,28.13
2019-01-30T07:06:04.129Z,33.75
2019-01-30T07:07:04.133Z,33.75
2019-01-30T07:08:04.140Z,33.75
2019-01-30T07:09:04.152Z,39.38
2019-01-30T07:10:04.156Z,39.38
2019-01-30T07:11:10.463Z,39.38
2019-01-30T07:12:04.176Z,45.00
2019-01-30T07:13:04.185Z,45.00
2019-01-30T07:14:04.191Z,45.00
2019-01-30T07:15:04.200Z,50.63
2019-01-30T07:16:04.210Z,50.63
2019-01-30T07:17:04.215Z,56.25
2019-01-30T07:18:04.224Z,56.25
2019-01-30T07:19:04.231Z,56.25
2019-01-30T07:20:04.240Z,61.88
2019-01-30T07:21:04.251Z,61.88
2019-01-30T07:22:04.257Z,61.88
2019-01-30T07:23:04.266Z,67.50
2019-01-30T07:24:04.278Z,67.50
2019-01-30T07:25:04.285Z,67.50
2019-01-30T07:26:04.290Z,73.13
2019-01-30T07:27:04.297Z,73.13
2019-01-30T07:28:04.308Z,73.13
2019-01-30T07:29:04.319Z,78.75
2019-01-30T07:30:04.326Z,78.75
2019-01-30T07:31:04.335Z,84.38
2019-01-30T07:32:04.344Z,84.38
2019-01-30T07:33:04.357Z,90.00
2019-01-30T07:34:04.387Z,90.00
2019-01-30T07:35:04.432Z,90.00
2019-01-30T07:36:04.434Z,95.63
2019-01-30T07:37:04.456Z,95.63
2019-01-30T07:38:04.443Z,101.25
2019-01-30T07:39:04.427Z,101.25
2019-01-30T07:40:04.436Z,106.88
2019-01-30T07:41:04.495Z,106.88
2019-01-30T07:42:04.495Z,106.88
2019-01-30T07:43:04.486Z,106.88
2019-01-30T07:44:04.502Z,106.88
2019-01-30T07:45:04.506Z,112.50
2019-01-30T07:46:04.495Z,112.50
2019-01-30T07:47:04.494Z,118.13
2019-01-30T07:48:04.498Z,118.13
2019-01-30T07:49:04.488Z,123.75
2019-01-30T07:50:04.496Z,123.75
2019-01-30T07:51:04.500Z,123.75
2019-01-30T07:52:04.510Z,129.38
2019-01-30T07:53:04.518Z,129.38
2019-01-30T07:54:04.528Z,135.00
2019-01-30T07:55:04.536Z,135.00
2019-01-30T07:56:04.544Z,140.63
2019-01-30T07:57:04.554Z,140.63
2019-01-30T07:58:05.902Z,146.25
2019-01-30T07:59:04.570Z,146.25
2019-01-30T08:00:04.582Z,146.25
2019-01-30T08:01:04.589Z,151.88
2019-01-30T08:02:04.596Z,151.88
2019-01-30T08:03:04.606Z,151.88
2019-01-30T08:04:04.613Z,157.50
2019-01-30T08:05:04.624Z,157.50
2019-01-30T08:06:04.633Z,163.13
2019-01-30T08:07:04.642Z,163.13
2019-01-30T08:08:04.651Z,163.13
2019-01-30T08:09:04.659Z,168.75
2019-01-30T08:10:04.669Z,168.75
2019-01-30T08:11:07.170Z,174.38
2019-01-30T08:12:04.687Z,174.38
2019-01-30T08:13:04.696Z,174.38
2019-01-30T08:14:04.703Z,180.00
2019-01-30T08:15:04.712Z,180.00
2019-01-30T08:16:04.722Z,180.00
2019-01-30T08:17:04.856Z,185.63
2019-01-30T08:18:04.741Z,185.63
2019-01-30T08:19:04.753Z,191.25
2019-01-30T08:20:04.855Z,191.25
2019-01-30T08:21:04.768Z,191.25
2019-01-30T08:22:04.776Z,196.88
2019-01-30T08:23:05.187Z,196.88
2019-01-30T08:24:04.984Z,196.88
2019-01-30T08:25:05.035Z,196.88
2019-01-30T08:26:04.990Z,202.50
2019-01-30T08:27:05.087Z,202.50
2019-01-30T08:28:05.253Z,202.50
2019-01-30T08:29:05.231Z,202.50
2019-01-30T08:30:05.055Z,202.50
2019-01-30T08:31:04.906Z,208.13
2019-01-30T08:32:05.027Z,208.13
2019-01-30T08:33:05.913Z,208.13
2019-01-30T08:34:04.890Z,208.13
2019-01-30T08:35:04.898Z,213.75
2019-01-30T08:36:04.906Z,213.75
2019-01-30T08:37:04.917Z,213.75
2019-01-30T08:38:04.924Z,213.75
2019-01-30T08:39:04.936Z,208.13
2019-01-30T08:40:04.945Z,213.75
2019-01-30T08:41:04.956Z,208.13
2019-01-30T08:42:04.968Z,208.13
2019-01-30T08:43:04.975Z,208.13
2019-01-30T08:44:04.983Z,208.13
2019-01-30T08:45:04.995Z,208.13
2019-01-30T08:46:05.000Z,213.75
2019-01-30T08:47:05.013Z,213.75
2019-01-30T08:48:05.022Z,213.75
2019-01-30T08:49:05.034Z,219.38
2019-01-30T08:50:05.040Z,219.38
2019-01-30T08:51:05.050Z,219.38
2019-01-30T08:52:05.060Z,219.38
2019-01-30T08:53:05.070Z,219.38
2019-01-30T08:54:05.078Z,219.38
2019-01-30T08:55:05.095Z,219.38
2019-01-30T08:56:05.098Z,219.38
2019-01-30T08:57:05.108Z,225.00
2019-01-30T08:58:05.119Z,225.00
2019-01-30T08:59:05.885Z,225.00
2019-01-30T09:00:05.144Z,225.00
2019-01-30T09:01:05.148Z,225.00
2019-01-30T09:02:05.159Z,225.00
2019-01-30T09:03:14.195Z,225.00
2019-01-30T09:04:05.178Z,225.00
2019-01-30T09:05:05.184Z,225.00
2019-01-30T09:06:05.196Z,225.00
2019-01-30T09:07:05.208Z,225.00
2019-01-30T09:08:05.218Z,225.00
2019-01-30T09:09:05.228Z,225.00
2019-01-30T09:10:05.238Z,225.00
2019-01-30T09:11:05.246Z,219.38
2019-01-30T09:12:05.258Z,219.38
2019-01-30T09:13:05.275Z,219.38
2019-01-30T09:14:05.275Z,219.38
2019-01-30T09:15:05.285Z,219.38
2019-01-30T09:16:05.296Z,219.38
2019-01-30T09:17:08.249Z,219.38
2019-01-30T09:18:05.316Z,219.38
2019-01-30T09:19:05.326Z,219.38
2019-01-30T09:20:05.337Z,219.38
2019-01-30T09:21:05.345Z,219.38
2019-01-30T09:22:05.356Z,219.38
2019-01-30T09:23:05.367Z,219.38
2019-01-30T09:24:05.377Z,219.38
2019-01-30T09:25:05.387Z,219.38
2019-01-30T09:26:05.395Z,213.75
2019-01-30T09:27:05.405Z,213.75
2019-01-30T09:28:05.418Z,213.75
2019-01-30T09:29:05.428Z,213.75
2019-01-30T09:30:05.437Z,208.13
2019-01-30T09:31:05.446Z,208.13
2019-01-30T09:32:05.465Z,208.13
2019-01-30T09:33:05.489Z,208.13
2019-01-30T09:34:05.479Z,208.13
2019-01-30T09:35:05.489Z,208.13
2019-01-30T09:36:05.499Z,208.13
2019-01-30T09:37:05.518Z,208.13
2019-01-30T09:38:05.522Z,208.13
2019-01-30T09:39:05.532Z,208.13
2019-01-30T09:40:05.539Z,208.13
2019-01-30T09:41:05.550Z,208.13
2019-01-30T09:42:05.557Z,213.75
2019-01-30T09:43:05.573Z,208.13
2019-01-30T09:44:05.578Z,213.75
2019-01-30T09:45:05.626Z,213.75
2019-01-30T09:46:05.598Z,213.75
2019-01-30T09:47:05.647Z,213.75
2019-01-30T09:48:05.621Z,219.38
2019-01-30T09:49:05.656Z,213.75
2019-01-30T09:50:05.638Z,219.38
2019-01-30T09:51:05.652Z,219.38
2019-01-30T09:52:05.664Z,219.38
2019-01-30T09:53:05.673Z,219.38
2019-01-30T09:54:05.682Z,219.38
2019-01-30T09:55:05.705Z,219.38
2019-01-30T09:56:05.703Z,213.75
2019-01-30T09:57:05.712Z,213.75
2019-01-30T09:58:05.723Z,213.75
2019-01-30T09:59:05.732Z,208.13
2019-01-30T10:00:05.741Z,208.13
2019-01-30T10:01:05.754Z,208.13
2019-01-30T10:02:05.764Z,208.13
2019-01-30T10:03:05.774Z,208.13
2019-01-30T10:04:05.785Z,208.13
2019-01-30T10:05:05.806Z,208.13
2019-01-30T10:06:05.805Z,208.13
2019-01-30T10:07:05.816Z,208.13
2019-01-30T10:08:05.827Z,208.13
2019-01-30T10:09:05.836Z,213.75
2019-01-30T10:10:05.848Z,208.13
2019-01-30T10:11:05.879Z,208.13
2019-01-30T10:12:05.868Z,208.13
2019-01-30T10:13:05.879Z,208.13
2019-01-30T10:14:05.889Z,208.13
2019-01-30T10:15:05.899Z,202.50
2019-01-30T10:16:05.909Z,208.13
2019-01-30T10:17:05.923Z,208.13
2019-01-30T10:18:05.931Z,208.13
2019-01-30T10:19:05.941Z,213.75
2019-01-30T10:20:05.950Z,213.75
2019-01-30T10:21:06.066Z,208.13
2019-01-30T10:22:05.971Z,208.13
2019-01-30T10:23:05.981Z,213.75
2019-01-30T10:24:06.007Z,213.75
2019-01-30T10:25:06.008Z,213.75
2019-01-30T10:26:06.017Z,213.75
2019-01-30T10:27:06.023Z,213.75
2019-01-30T10:28:15.906Z,213.75
2019-01-30T10:29:06.046Z,213.75
2019-01-30T10:30:06.055Z,208.13
2019-01-30T10:31:06.070Z,213.75
2019-01-30T10:32:06.078Z,208.13
2019-01-30T10:33:06.091Z,208.13
2019-01-30T10:34:06.100Z,208.13
2019-01-30T10:35:06.108Z,208.13
2019-01-30T10:36:06.136Z,208.13
2019-01-30T10:37:06.260Z,202.50
2019-01-30T10:38:06.293Z,196.88
2019-01-30T10:39:06.231Z,202.50
2019-01-30T10:40:06.197Z,208.13
2019-01-30T10:41:06.222Z,202.50
2019-01-30T10:42:06.243Z,208.13
2019-01-30T10:43:06.267Z,208.13
2019-01-30T10:44:06.264Z,213.75
2019-01-30T10:45:06.265Z,213.75
2019-01-30T10:46:06.264Z,213.75
2019-01-30T10:47:06.257Z,213.75
2019-01-30T10:48:06.259Z,213.75
2019-01-30T10:49:06.261Z,213.75
2019-01-30T10:50:06.263Z,213.75
2019-01-30T10:51:07.443Z,213.75
2019-01-30T10:52:06.290Z,219.38
2019-01-30T10:53:06.298Z,213.75
2019-01-30T10:54:06.310Z,213.75
2019-01-30T10:55:06.321Z,213.75
2019-01-30T10:56:06.332Z,213.75
2019-01-30T10:57:06.342Z,219.38
2019-01-30T10:58:06.350Z,225.00
2019-01-30T10:59:06.360Z,225.00
2019-01-30T11:00:06.376Z,225.00
2019-01-30T11:01:06.384Z,230.63
2019-01-30T11:02:06.394Z,230.63
2019-01-30T11:03:06.405Z,230.63
2019-01-30T11:04:06.415Z,230.63
2019-01-30T11:05:06.426Z,225.00
2019-01-30T11:06:06.436Z,230.63
2019-01-30T11:07:06.450Z,230.63
2019-01-30T11:08:06.459Z,230.63
2019-01-30T11:09:06.469Z,230.63
2019-01-30T11:10:06.483Z,230.63
2019-01-30T11:11:08.121Z,230.63
2019-01-30T11:12:06.503Z,230.63
2019-01-30T11:13:06.525Z,230.63
2019-01-30T11:14:06.525Z,230.63
2019-01-30T11:15:06.537Z,236.25
2019-01-30T11:16:06.549Z,241.88
2019-01-30T11:17:08.635Z,241.88
2019-01-30T11:18:06.566Z,247.50
2019-01-30T11:19:06.580Z,247.50
2019-01-30T11:20:06.591Z,247.50
2019-01-30T11:21:06.604Z,253.13
2019-01-30T11:22:06.620Z,253.13
2019-01-30T11:23:06.621Z,253.13
2019-01-30T11:24:06.633Z,258.75
2019-01-30T11:25:06.650Z,258.75
2019-01-30T11:26:06.656Z,264.38
2019-01-30T11:27:06.665Z,258.75
2019-01-30T11:28:06.677Z,258.75
2019-01-30T11:29:06.690Z,270.00
2019-01-30T11:30:06.715Z,275.63
2019-01-30T11:31:06.711Z,281.25
2019-01-30T11:32:06.721Z,281.25
2019-01-30T11:33:06.734Z,286.88
2019-01-30T11:34:07.446Z,298.13
2019-01-30T11:35:06.872Z,303.75
2019-01-30T11:36:06.765Z,303.75
2019-01-30T11:37:06.776Z,309.38
2019-01-30T11:38:08.822Z,309.38
2019-01-30T11:39:06.800Z,315.00
2019-01-30T11:40:06.812Z,315.00
2019-01-30T11:41:06.822Z,309.38
2019-01-30T11:42:06.833Z,315.00
2019-01-30T11:43:06.936Z,315.00
2019-01-30T11:44:06.854Z,315.00
2019-01-30T11:45:06.871Z,320.63
2019-01-30T11:46:06.879Z,320.63
2019-01-30T11:47:06.890Z,315.00
2019-01-30T11:48:06.901Z,309.38
2019-01-30T11:49:06.912Z,303.75
2019-01-30T11:50:06.924Z,303.75
2019-01-30T11:51:06.935Z,303.75
2019-01-30T11:52:06.946Z,298.13
2019-01-30T11:53:06.957Z,298.13
2019-01-30T11:54:06.975Z,298.13
2019-01-30T11:55:06.983Z,298.13
2019-01-30T11:56:06.996Z,298.13
2019-01-30T11:57:07.005Z,298.13
2019-01-30T11:58:07.015Z,292.50
2019-01-30T11:59:07.025Z,292.50
2019-01-30T12:00:07.039Z,292.50
2019-01-30T12:01:07.051Z,298.13
2019-01-30T12:02:07.060Z,298.13
2019-01-30T12:03:07.078Z,298.13
2019-01-30T12:04:17.413Z,298.13
2019-01-30T12:05:07.097Z,303.75
2019-01-30T12:06:07.110Z,303.75
2019-01-30T12:07:07.122Z,303.75
2019-01-30T12:08:07.129Z,303.75
2019-01-30T12:09:07.141Z,303.75
2019-01-30T12:10:07.156Z,298.13
2019-01-30T12:11:07.166Z,298.13
2019-01-30T12:12:07.177Z,298.13
2019-01-30T12:13:07.189Z,298.13
2019-01-30T12:14:07.201Z,298.13
2019-01-30T12:15:07.211Z,292.50
2019-01-30T12:16:07.225Z,292.50
2019-01-30T12:17:07.236Z,292.50
2019-01-30T12:18:07.246Z,292.50
2019-01-30T12:19:07.258Z,286.88
2019-01-30T12:20:07.366Z,286.88
2019-01-30T12:21:07.282Z,292.50
2019-01-30T12:22:07.293Z,292.50
2019-01-30T12:23:07.305Z,298.13
2019-01-30T12:24:07.318Z,303.75
2019-01-30T12:25:07.329Z,303.75
2019-01-30T12:26:07.340Z,303.75
2019-01-30T12:27:07.356Z,303.75
2019-01-30T12:28:07.366Z,309.38
2019-01-30T12:29:07.376Z,309.38
2019-01-30T12:30:07.385Z,315.00
2019-01-30T12:31:07.399Z,315.00
2019-01-30T12:32:07.410Z,315.00
2019-01-30T12:33:07.423Z,315.00
2019-01-30T12:34:07.435Z,315.00
2019-01-30T12:35:07.445Z,315.00
2019-01-30T12:36:07.458Z,315.00
2019-01-30T12:37:07.472Z,315.00
2019-01-30T12:38:07.480Z,315.00
2019-01-30T12:39:07.490Z,309.38
2019-01-30T12:40:07.503Z,309.38
2019-01-30T12:41:07.516Z,309.38
2019-01-30T12:42:07.529Z,315.00
2019-01-30T12:43:07.540Z,315.00
2019-01-30T12:44:07.551Z,320.63
2019-01-30T12:45:07.564Z,320.63
2019-01-30T12:46:07.574Z,320.63
2019-01-30T12:47:07.586Z,320.63
2019-01-30T12:48:07.609Z,320.63
2019-01-30T12:49:07.609Z,320.63
2019-01-30T12:50:07.635Z,320.63
2019-01-30T12:51:07.631Z,320.63
2019-01-30T12:52:07.646Z,320.63
2019-01-30T12:53:07.658Z,320.63
2019-01-30T12:54:07.671Z,320.63
2019-01-30T12:55:07.684Z,320.63